Time;durP1;ratioP1;P1;durP2;ratioP2;P2;SDS_P1;SDS_P2;PMS_P1;PMS_P2;Temp;Humidity;BMP_temperature;BMP_pressure;BME280_temperature;BME280_humidity;BME280_pressure;Samples;Min_cycle;Max_cycle;Signal;HPM_P1;HPM_P2
2022/06/24 00:01:13;;;;;;;;;;;;;;;;;;5055158;28;20015;-90
2022/06/24 00:03:39;;;;;;;;;;;;;;;;;;5055290;28;20364;-91
2022/06/24 00:06:17;;;;;;;;;;;;;;;;;;5054295;28;19913;-91
2022/06/24 00:08:49;;;;;;;;;;;;;;;;;;5053894;28;20003;-91
2022/06/24 00:11:15;;;;;;;;;;;;;;;;;;5055089;28;19912;-90
2022/06/24 00:13:40;;;;;;;;;;;;;;;;;;5055089;28;20004;-90
2022/06/24 00:16:06;;;;;;;;;;;;;;;;;;5055254;28;19956;-91
2022/06/24 00:18:31;;;;;;;;;;;;;;;;;;5053667;28;19924;-90
2022/06/24 00:20:56;;;;;;;;;;;;;;;;;;5054935;28;20406;-90
2022/06/24 00:23:22;;;;;;;;;;;;;;;;;;5055083;28;20368;-90
2022/06/24 00:25:49;;;;;;;;;;;;;;;;;;5054163;28;19924;-91
2022/06/24 00:28:15;;;;;;;;;;;;;;;;;;5058565;28;20016;-90
2022/06/24 00:30:42;;;;;;;;;;;;;;;;;;5053658;28;19904;-91
2022/06/24 00:33:17;;;;;;;;;;;;;;;;;;5075919;28;19928;-92
2022/06/24 00:35:49;;;;;;;;;;;;;;;;;;5049938;28;19997;-90
2022/06/24 00:38:21;;;;;;;;;;;;;;;;;;5016375;28;20431;-91
2022/06/24 00:40:47;;;;;;;;;;;;;;;;;;5019727;28;20381;-89
2022/06/24 00:43:22;;;;;;;;;;;;;;;;;;5016230;28;19921;-90
2022/06/24 00:45:50;;;;;;;;;;;;;;;;;;5015602;28;19978;-90
2022/06/24 00:48:18;;;;;;;;;;;;;;;;;;5014911;28;19922;-90
2022/06/24 00:50:45;;;;;;;;;;;;;;;;;;5013540;28;19913;-87
2022/06/24 00:53:10;;;;;;;;;;;;;;;;;;5014210;28;20059;-87
2022/06/24 00:55:37;;;;;;;;;;;;;;;;;;5014768;28;20412;-91
2022/06/24 00:58:03;;;;;;;;;;;;;;;;;;5014934;28;20282;-91
2022/06/24 01:00:30;;;;;;;;;;;;;;;;;;5013305;28;19924;-90
2022/06/24 01:02:57;;;;;;;;;;;;;;;;;;5013508;28;19924;-91
2022/06/24 01:05:22;;;;;;;;;;;;;;;;;;5013419;28;19924;-90
2022/06/24 01:07:48;;;;;;;;;;;;;;;;;;5014624;28;20440;-90
2022/06/24 01:10:13;;;;;;;;;;;;;;;;;;5014422;28;19917;-90
2022/06/24 01:12:39;;;;;;;;;;;;;;;;;;5013236;28;19982;-90
2022/06/24 01:15:06;;;;;;;;;;;;;;;;;;5013247;28;19917;-90
2022/06/24 01:17:31;;;;;;;;;;;;;;;;;;5013131;28;19917;-92
2022/06/24 01:19:57;;;;;;;;;;;;;;;;;;5012854;28;20395;-91
2022/06/24 01:22:23;;;;;;;;;;;;;;;;;;5011609;28;20285;-92
2022/06/24 01:24:49;;;;;;;;;;;;;;;;;;5012620;28;19933;-92
2022/06/24 01:27:14;;;;;;;;;;;;;;;;;;5013182;28;19917;-90
2022/06/24 01:29:40;;;;;;;;;;;;;;;;;;5014261;28;19956;-90
2022/06/24 01:32:06;;;;;;;;;;;;;;;;;;5012947;28;19953;-91
2022/06/24 01:34:31;;;;;;;;;;;;;;;;;;5012959;28;19917;-89
2022/06/24 01:36:56;;;;;;;;;;;;;;;;;;5022655;28;19921;-90
2022/06/24 01:39:22;;;;;;;;;;;;;;;;;;5033927;28;19917;-89
2022/06/24 01:41:48;;;;;;;;;;;;;;;;;;5032673;28;19924;-89
2022/06/24 01:44:13;;;;;;;;;;;;;;;;;;5032527;28;20426;-89
2022/06/24 01:46:39;;;;;;;;;;;;;;;;;;5032486;28;20323;-91
2022/06/24 01:49:04;;;;;;;;;;;;;;;;;;5033713;28;19918;-90
2022/06/24 01:51:31;;;;;;;;;;;;;;;;;;5033762;28;19964;-89
2022/06/24 01:53:57;;;;;;;;;;;;;;;;;;5033693;28;19924;-91
2022/06/24 01:56:22;;;;;;;;;;;;;;;;;;5033721;28;20008;-89
2022/06/24 01:58:48;;;;;;;;;;;;;;;;;;5032356;28;19924;-89
2022/06/24 02:01:13;;;;;;;;;;;;;;;;;;5031737;28;19963;-89
2022/06/24 02:03:39;;;;;;;;;;;;;;;;;;5033584;28;19921;-89
2022/06/24 02:06:06;;;;;;;;;;;;;;;;;;5035016;28;19959;-91
2022/06/24 02:08:31;;;;;;;;;;;;;;;;;;5036177;28;19952;-89
2022/06/24 02:13:41;;;;;;;;;;;;;;;;;;5037857;28;19924;-90
2022/06/24 02:16:07;;;;;;;;;;;;;;;;;;5037178;28;20359;-89
2022/06/24 02:18:33;;;;;;;;;;;;;;;;;;5035706;28;19917;-90
2022/06/24 02:20:59;;;;;;;;;;;;;;;;;;5035831;28;19917;-89
2022/06/24 02:23:25;;;;;;;;;;;;;;;;;;5037412;28;20004;-90
2022/06/24 02:25:51;;;;;;;;;;;;;;;;;;5037192;28;20032;-88
2022/06/24 02:28:17;;;;;;;;;;;;;;;;;;5035936;28;19975;-91
2022/06/24 02:30:43;;;;;;;;;;;;;;;;;;5035855;28;19921;-92
2022/06/24 02:33:09;;;;;;;;;;;;;;;;;;5035987;28;19940;-92
2022/06/24 02:35:35;;;;;;;;;;;;;;;;;;5037055;28;20372;-90
2022/06/24 02:38:00;;;;;;;;;;;;;;;;;;5035504;28;19975;-89
2022/06/24 02:43:24;;;;;;;;;;;;;;;;;;5037446;28;19940;-91
2022/06/24 02:45:59;;;;;;;;;;;;;;;;;;5036914;28;19944;-91
2022/06/24 02:48:24;;;;;;;;;;;;;;;;;;5037000;28;19918;-90
2022/06/24 02:50:57;;;;;;;;;;;;;;;;;;5035816;28;19983;-90
2022/06/24 02:53:23;;;;;;;;;;;;;;;;;;5035399;28;19917;-91
2022/06/24 02:55:50;;;;;;;;;;;;;;;;;;5035408;28;20350;-90
2022/06/24 02:58:16;;;;;;;;;;;;;;;;;;5036524;28;19944;-91
2022/06/24 03:00:41;;;;;;;;;;;;;;;;;;5035184;28;19971;-90
2022/06/24 03:03:11;;;;;;;;;;;;;;;;;;5035485;28;19917;-90
2022/06/24 03:05:37;;;;;;;;;;;;;;;;;;5036678;28;19925;-91
2022/06/24 03:08:03;;;;;;;;;;;;;;;;;;5035099;28;19917;-90
2022/06/24 03:10:28;;;;;;;;;;;;;;;;;;5034995;28;20008;-90
2022/06/24 03:12:54;;;;;;;;;;;;;;;;;;5035063;28;20059;-91
2022/06/24 03:15:22;;;;;;;;;;;;;;;;;;5035609;28;19928;-91
2022/06/24 03:17:48;;;;;;;;;;;;;;;;;;5034605;28;19921;-92
2022/06/24 03:20:14;;;;;;;;;;;;;;;;;;5035611;28;20015;-92
2022/06/24 03:22:39;;;;;;;;;;;;;;;;;;5034208;28;19925;-90
2022/06/24 03:25:06;;;;;;;;;;;;;;;;;;5035967;28;19918;-92
2022/06/24 03:27:31;;;;;;;;;;;;;;;;;;5034727;28;19944;-92
2022/06/24 03:29:57;;;;;;;;;;;;;;;;;;5034807;28;19917;-91
2022/06/24 03:32:22;;;;;;;;;;;;;;;;;;5036221;28;19917;-93
2022/06/24 03:34:48;;;;;;;;;;;;;;;;;;5034690;28;19940;-90
2022/06/24 03:37:13;;;;;;;;;;;;;;;;;;5034352;28;19921;-91
2022/06/24 03:39:39;;;;;;;;;;;;;;;;;;5035949;28;19917;-91
2022/06/24 03:42:05;;;;;;;;;;;;;;;;;;5035761;28;19917;-90
2022/06/24 03:44:31;;;;;;;;;;;;;;;;;;5035708;28;19924;-91
2022/06/24 03:46:56;;;;;;;;;;;;;;;;;;5034084;28;19933;-91
2022/06/24 03:49:22;;;;;;;;;;;;;;;;;;5032174;28;20047;-92
2022/06/24 03:51:47;;;;;;;;;;;;;;;;;;5022550;28;19929;-91
2022/06/24 03:54:13;;;;;;;;;;;;;;;;;;5033122;28;19917;-91
2022/06/24 03:56:38;;;;;;;;;;;;;;;;;;5034221;28;19924;-90
2022/06/24 03:59:04;;;;;;;;;;;;;;;;;;5031769;28;19921;-93
2022/06/24 04:01:29;;;;;;;;;;;;;;;;;;5022752;28;20016;-94
2022/06/24 04:03:55;;;;;;;;;;;;;;;;;;5025091;28;19921;-93
2022/06/24 04:06:20;;;;;;;;;;;;;;;;;;5020953;28;19924;-92
2022/06/24 04:08:46;;;;;;;;;;;;;;;;;;5015534;28;19944;-91
2022/06/24 04:11:12;;;;;;;;;;;;;;;;;;5014091;28;19917;-92
2022/06/24 04:13:37;;;;;;;;;;;;;;;;;;5015645;28;20408;-91
2022/06/24 04:16:03;;;;;;;;;;;;;;;;;;5015511;28;19918;-91
2022/06/24 04:18:28;;;;;;;;;;;;;;;;;;5015785;28;19956;-91
2022/06/24 04:20:54;;;;;;;;;;;;;;;;;;5032024;28;19928;-91
2022/06/24 04:23:19;;;;;;;;;;;;;;;;;;5038069;28;20330;-92
2022/06/24 04:25:48;;;;;;;;;;;;;;;;;;5032448;28;20351;-91
2022/06/24 04:28:13;;;;;;;;;;;;;;;;;;5033662;28;19924;-90
2022/06/24 04:30:39;;;;;;;;;;;;;;;;;;5033795;28;19917;-90
2022/06/24 04:33:04;;;;;;;;;;;;;;;;;;5033690;28;19917;-90
2022/06/24 04:35:30;;;;;;;;;;;;;;;;;;5032271;28;19946;-91
2022/06/24 04:37:55;;;;;;;;;;;;;;;;;;5052460;28;20283;-90
2022/06/24 04:40:21;;;;;;;;;;;;;;;;;;5053099;28;19956;-90
2022/06/24 04:42:46;;;;;;;;;;;;;;;;;;5054433;28;20358;-91
2022/06/24 04:45:12;;;;;;;;;;;;;;;;;;5054306;28;19963;-90
2022/06/24 04:47:37;;;;;;;;;;;;;;;;;;5054320;28;19964;-89
2022/06/24 04:50:04;;;;;;;;;;;;;;;;;;5052981;28;19952;-90
2022/06/24 04:52:30;;;;;;;;;;;;;;;;;;5053229;28;19917;-89
2022/06/24 04:54:56;;;;;;;;;;;;;;;;;;5053458;28;19970;-90
2022/06/24 04:57:21;;;;;;;;;;;;;;;;;;5053328;28;19916;-91
2022/06/24 04:59:47;;;;;;;;;;;;;;;;;;5072420;28;19947;-90
2022/06/24 05:02:12;;;;;;;;;;;;;;;;;;5056689;28;19902;-93
2022/06/24 05:04:37;;;;;;;;;;;;;;;;;;5039695;28;19940;-89
2022/06/24 05:07:03;;;;;;;;;;;;;;;;;;5017238;28;19932;-91
2022/06/24 05:09:29;;;;;;;;;;;;;;;;;;5031140;28;19925;-91
2022/06/24 05:11:54;;;;;;;;;;;;;;;;;;5029808;28;19917;-90
2022/06/24 05:14:19;;;;;;;;;;;;;;;;;;5013105;28;19918;-90
2022/06/24 05:16:45;;;;;;;;;;;;;;;;;;5014325;28;20081;-91
2022/06/24 05:19:11;;;;;;;;;;;;;;;;;;5029414;28;19971;-91
2022/06/24 05:21:36;;;;;;;;;;;;;;;;;;5014070;28;19965;-91
2022/06/24 05:24:02;;;;;;;;;;;;;;;;;;5014253;28;20432;-91
2022/06/24 05:26:27;;;;;;;;;;;;;;;;;;5029396;28;19913;-91
2022/06/24 05:28:53;;;;;;;;;;;;;;;;;;5051287;28;20011;-91
2022/06/24 05:31:18;;;;;;;;;;;;;;;;;;5053875;28;19913;-91
2022/06/24 05:33:44;;;;;;;;;;;;;;;;;;5052423;28;20020;-89
2022/06/24 05:36:09;;;;;;;;;;;;;;;;;;5048744;28;19921;-90
2022/06/24 05:38:35;;;;;;;;;;;;;;;;;;5073230;28;19923;-90
2022/06/24 05:41:01;;;;;;;;;;;;;;;;;;5076317;28;20364;-90
2022/06/24 05:43:27;;;;;;;;;;;;;;;;;;5077745;28;19917;-89
2022/06/24 05:45:52;;;;;;;;;;;;;;;;;;5058794;28;19917;-91
2022/06/24 05:48:18;;;;;;;;;;;;;;;;;;5039866;28;19923;-90
2022/06/24 05:50:43;;;;;;;;;;;;;;;;;;5039844;28;19916;-89
2022/06/24 05:55:58;;;;;;;;;;;;;;;;;;5057634;28;19955;-92
2022/06/24 05:58:24;;;;;;;;;;;;;;;;;;5057561;28;19921;-90
2022/06/24 06:00:51;;;;;;;;;;;;;;;;;;5039608;28;19920;-90
2022/06/24 06:03:16;;;;;;;;;;;;;;;;;;5038565;28;19925;-90
2022/06/24 06:05:41;;;;;;;;;;;;;;;;;;5039448;28;20045;-89
2022/06/24 06:08:07;;;;;;;;;;;;;;;;;;5057431;28;19970;-90
2022/06/24 06:10:34;;;;;;;;;;;;;;;;;;5057296;28;19972;-91
2022/06/24 06:13:00;;;;;;;;;;;;;;;;;;5039478;28;19917;-91
2022/06/24 06:15:25;;;;;;;;;;;;;;;;;;5057156;28;19921;-90
2022/06/24 06:17:51;;;;;;;;;;;;;;;;;;5039910;28;19940;-91
2022/06/24 06:20:16;;;;;;;;;;;;;;;;;;5058925;28;20421;-91
2022/06/24 06:22:42;;;;;;;;;;;;;;;;;;5039301;28;19963;-89
2022/06/24 06:25:08;;;;;;;;;;;;;;;;;;5057320;28;19924;-91
2022/06/24 06:27:36;;;;;;;;;;;;;;;;;;5040635;28;20012;-93
2022/06/24 06:30:02;;;;;;;;;;;;;;;;;;5043002;28;19916;-91
2022/06/24 06:32:27;;;;;;;;;;;;;;;;;;5057434;28;19923;-89
2022/06/24 06:34:53;;;;;;;;;;;;;;;;;;5058821;28;19917;-90
2022/06/24 06:37:18;;;;;;;;;;;;;;;;;;5056764;28;19929;-90
2022/06/24 06:39:43;;;;;;;;;;;;;;;;;;5056991;28;19916;-89
2022/06/24 06:42:09;;;;;;;;;;;;;;;;;;5057057;28;19917;-91
2022/06/24 06:44:34;;;;;;;;;;;;;;;;;;5038984;28;19917;-90
2022/06/24 06:47:00;;;;;;;;;;;;;;;;;;5038858;28;19917;-91
2022/06/24 06:49:25;;;;;;;;;;;;;;;;;;5056806;28;19928;-90
2022/06/24 06:51:51;;;;;;;;;;;;;;;;;;5056859;28;19917;-90
2022/06/24 06:54:16;;;;;;;;;;;;;;;;;;5038925;28;20343;-90
2022/06/24 06:56:42;;;;;;;;;;;;;;;;;;5056638;28;19924;-91
2022/06/24 06:59:08;;;;;;;;;;;;;;;;;;5056517;28;19917;-88
2022/06/24 07:01:33;;;;;;;;;;;;;;;;;;5056409;28;19970;-89
2022/06/24 07:03:58;;;;;;;;;;;;;;;;;;5056330;28;19917;-90
2022/06/24 07:06:24;;;;;;;;;;;;;;;;;;5056257;28;19917;-90
2022/06/24 07:08:49;;;;;;;;;;;;;;;;;;5056301;28;19917;-88
2022/06/24 07:11:15;;;;;;;;;;;;;;;;;;5056093;28;20003;-89
2022/06/24 07:13:40;;;;;;;;;;;;;;;;;;5038279;28;19956;-88
2022/06/24 07:16:09;;;;;;;;;;;;;;;;;;5038242;28;19921;-89
2022/06/24 07:18:35;;;;;;;;;;;;;;;;;;5056009;28;19917;-89
2022/06/24 07:21:03;;;;;;;;;;;;;;;;;;5055823;28;19963;-90
2022/06/24 07:23:29;;;;;;;;;;;;;;;;;;5037979;28;19917;-90
2022/06/24 07:25:57;;;;;;;;;;;;;;;;;;5037996;28;20011;-89
2022/06/24 07:28:26;;;;;;;;;;;;;;;;;;5055930;28;19921;-89
2022/06/24 07:30:51;;;;;;;;;;;;;;;;;;5037928;28;19921;-89
2022/06/24 07:33:17;;;;;;;;;;;;;;;;;;5038027;28;20422;-89
2022/06/24 07:35:43;;;;;;;;;;;;;;;;;;5037739;28;19966;-89
2022/06/24 07:38:09;;;;;;;;;;;;;;;;;;5055455;28;19928;-91
2022/06/24 07:40:34;;;;;;;;;;;;;;;;;;5037715;28;19917;-88
2022/06/24 07:43:00;;;;;;;;;;;;;;;;;;5055507;28;19917;-88
2022/06/24 07:45:25;;;;;;;;;;;;;;;;;;5055539;28;19917;-88
2022/06/24 07:47:50;;;;;;;;;;;;;;;;;;5055502;28;19917;-89
2022/06/24 07:50:16;;;;;;;;;;;;;;;;;;5037522;28;19920;-89
2022/06/24 07:52:41;;;;;;;;;;;;;;;;;;5055383;28;19917;-88
2022/06/24 07:57:51;;;;;;;;;;;;;;;;;;5055320;28;19942;-88
2022/06/24 08:00:16;;;;;;;;;;;;;;;;;;5037271;28;20019;-89
2022/06/24 08:02:42;;;;;;;;;;;;;;;;;;5054607;28;19916;-89
2022/06/24 08:05:07;;;;;;;;;;;;;;;;;;5052406;28;19923;-89
2022/06/24 08:07:33;;;;;;;;;;;;;;;;;;5076173;28;19923;-91
2022/06/24 08:09:58;;;;;;;;;;;;;;;;;;5059760;28;19966;-90
2022/06/24 08:12:24;;;;;;;;;;;;;;;;;;5075304;28;19924;-91
2022/06/24 08:14:50;;;;;;;;;;;;;;;;;;5057369;28;19917;-92
2022/06/24 08:17:15;;;;;;;;;;;;;;;;;;5042326;28;20027;-92
2022/06/24 08:19:41;;;;;;;;;;;;;;;;;;5059666;28;19943;-93
2022/06/24 08:22:07;;;;;;;;;;;;;;;;;;5059992;28;19916;-91
2022/06/24 08:24:32;;;;;;;;;;;;;;;;;;5059578;28;20428;-92
2022/06/24 08:26:58;;;;;;;;;;;;;;;;;;5076783;28;19923;-90
2022/06/24 08:29:23;;;;;;;;;;;;;;;;;;5075354;28;19917;-91
2022/06/24 08:31:48;;;;;;;;;;;;;;;;;;5074920;28;19959;-90
2022/06/24 08:34:15;;;;;;;;;;;;;;;;;;5074816;28;19916;-89
2022/06/24 08:36:40;;;;;;;;;;;;;;;;;;5074485;28;19920;-89
2022/06/24 08:39:06;;;;;;;;;;;;;;;;;;5074819;28;20014;-89
2022/06/24 08:41:32;;;;;;;;;;;;;;;;;;5074490;28;19920;-90
2022/06/24 08:43:58;;;;;;;;;;;;;;;;;;5074687;28;20279;-88
2022/06/24 08:46:25;;;;;;;;;;;;;;;;;;5056536;28;19921;-89
2022/06/24 08:48:51;;;;;;;;;;;;;;;;;;5056437;28;19916;-90
2022/06/24 08:51:17;;;;;;;;;;;;;;;;;;5074597;28;19967;-88
2022/06/24 08:53:43;;;;;;;;;;;;;;;;;;5056335;28;19960;-89
2022/06/24 08:56:09;;;;;;;;;;;;;;;;;;5074608;28;19917;-89
2022/06/24 08:58:35;;;;;;;;;;;;;;;;;;5075068;28;20015;-89
2022/06/24 09:01:00;;;;;;;;;;;;;;;;;;5074633;28;19955;-88
2022/06/24 09:03:26;;;;;;;;;;;;;;;;;;5074230;28;19920;-89
2022/06/24 09:05:51;;;;;;;;;;;;;;;;;;5074361;28;19958;-88
2022/06/24 09:08:17;;;;;;;;;;;;;;;;;;5076460;28;19984;-89
2022/06/24 09:13:55;;;;;;;;;;;;;;;;;;5077656;28;19954;-90
2022/06/24 09:16:23;;;;;;;;;;;;;;;;;;5072919;28;19936;-91
2022/06/24 09:18:53;;;;;;;;;;;;;;;;;;5047896;28;19944;-90
2022/06/24 09:21:23;;;;;;;;;;;;;;;;;;5047579;28;19968;-92
2022/06/24 09:23:53;;;;;;;;;;;;;;;;;;5038697;28;19916;-92
2022/06/24 09:26:42;;;;;;;;;;;;;;;;;;5037456;28;20323;-89
2022/06/24 09:29:11;;;;;;;;;;;;;;;;;;5034953;28;19917;-92
2022/06/24 09:31:38;;;;;;;;;;;;;;;;;;5037915;28;19916;-91
2022/06/24 09:34:14;;;;;;;;;;;;;;;;;;5054396;28;19917;-92
2022/06/24 09:36:40;;;;;;;;;;;;;;;;;;5035810;28;20015;-91
2022/06/24 09:39:11;;;;;;;;;;;;;;;;;;5054539;28;19917;-93
2022/06/24 09:41:54;;;;;;;;;;;;;;;;;;5036604;28;19936;-93
2022/06/24 09:44:20;;;;;;;;;;;;;;;;;;5053983;28;19955;-89
2022/06/24 09:46:46;;;;;;;;;;;;;;;;;;5035833;28;19920;-91
2022/06/24 09:49:12;;;;;;;;;;;;;;;;;;5053822;28;20295;-92
2022/06/24 09:51:39;;;;;;;;;;;;;;;;;;5035980;28;20379;-94
2022/06/24 09:54:05;;;;;;;;;;;;;;;;;;5054317;28;20395;-91
2022/06/24 09:56:31;;;;;;;;;;;;;;;;;;5055073;28;19917;-91
2022/06/24 10:01:42;;;;;;;;;;;;;;;;;;5053937;28;20276;-92
2022/06/24 10:04:14;;;;;;;;;;;;;;;;;;5053962;28;20364;-89
2022/06/24 10:06:42;;;;;;;;;;;;;;;;;;5035726;28;20051;-91
2022/06/24 10:09:07;;;;;;;;;;;;;;;;;;5053495;28;19924;-92
2022/06/24 10:11:33;;;;;;;;;;;;;;;;;;5035871;28;19920;-90
2022/06/24 10:13:59;;;;;;;;;;;;;;;;;;5053670;28;20295;-92
2022/06/24 10:16:25;;;;;;;;;;;;;;;;;;5053938;28;19916;-89
2022/06/24 10:18:51;;;;;;;;;;;;;;;;;;5053471;28;20323;-89
2022/06/24 10:21:17;;;;;;;;;;;;;;;;;;5053326;28;19921;-90
2022/06/24 10:23:43;;;;;;;;;;;;;;;;;;5035784;28;19917;-90
2022/06/24 10:26:09;;;;;;;;;;;;;;;;;;5036959;28;19913;-89
2022/06/24 10:28:55;;;;;;;;;;;;;;;;;;5057274;28;20004;-89
2022/06/24 10:31:20;;;;;;;;;;;;;;;;;;5039199;28;20008;-89
2022/06/24 10:33:46;;;;;;;;;;;;;;;;;;5039074;28;19970;-89
2022/06/24 10:36:11;;;;;;;;;;;;;;;;;;5038951;28;19928;-89
2022/06/24 10:38:37;;;;;;;;;;;;;;;;;;5039109;28;19917;-93
2022/06/24 10:41:03;;;;;;;;;;;;;;;;;;5038854;28;19923;-90
2022/06/24 10:43:48;;;;;;;;;;;;;;;;;;5056862;28;19917;-91
2022/06/24 10:46:13;;;;;;;;;;;;;;;;;;5057038;28;19917;-90
2022/06/24 10:48:56;;;;;;;;;;;;;;;;;;5038957;28;19917;-90
2022/06/24 10:51:22;;;;;;;;;;;;;;;;;;5056863;28;19917;-90
2022/06/24 10:54:02;;;;;;;;;;;;;;;;;;5056735;28;20288;-90
2022/06/24 10:56:47;;;;;;;;;;;;;;;;;;5038832;28;19951;-91
2022/06/24 10:59:14;;;;;;;;;;;;;;;;;;5038705;28;19923;-92
2022/06/24 11:01:44;;;;;;;;;;;;;;;;;;5056384;28;19975;-92
2022/06/24 11:04:12;;;;;;;;;;;;;;;;;;5056393;28;19923;-91
2022/06/24 11:06:38;;;;;;;;;;;;;;;;;;5056260;28;19917;-90
2022/06/24 11:09:04;;;;;;;;;;;;;;;;;;5056175;28;20007;-90
2022/06/24 11:11:30;;;;;;;;;;;;;;;;;;5056160;28;19923;-91
2022/06/24 11:13:56;;;;;;;;;;;;;;;;;;5056321;28;20323;-90
2022/06/24 11:16:21;;;;;;;;;;;;;;;;;;5038329;28;19946;-91
2022/06/24 11:18:50;;;;;;;;;;;;;;;;;;5056038;28;19917;-92
2022/06/24 11:21:19;;;;;;;;;;;;;;;;;;5038037;28;19932;-90
2022/06/24 11:23:48;;;;;;;;;;;;;;;;;;5038200;28;19953;-91
2022/06/24 11:26:18;;;;;;;;;;;;;;;;;;5038118;28;19913;-93
2022/06/24 11:28:48;;;;;;;;;;;;;;;;;;5055978;28;19967;-92
2022/06/24 11:31:16;;;;;;;;;;;;;;;;;;5055897;28;19913;-92
2022/06/24 11:33:41;;;;;;;;;;;;;;;;;;5037709;28;19924;-93
2022/06/24 11:36:09;;;;;;;;;;;;;;;;;;5055814;28;19921;-91
2022/06/24 11:38:47;;;;;;;;;;;;;;;;;;5055139;28;19916;-92
2022/06/24 11:41:19;;;;;;;;;;;;;;;;;;5037689;28;19924;-90
2022/06/24 11:43:48;;;;;;;;;;;;;;;;;;5037773;28;20015;-91
2022/06/24 11:46:15;;;;;;;;;;;;;;;;;;5055667;28;19948;-91
2022/06/24 11:48:41;;;;;;;;;;;;;;;;;;5055499;28;20376;-91
2022/06/24 11:51:15;;;;;;;;;;;;;;;;;;5037550;28;19927;-90
2022/06/24 11:53:43;;;;;;;;;;;;;;;;;;5055483;28;20364;-91
2022/06/24 11:56:08;;;;;;;;;;;;;;;;;;5055662;28;19917;-92
2022/06/24 11:58:35;;;;;;;;;;;;;;;;;;5037776;28;19967;-89
2022/06/24 12:01:01;;;;;;;;;;;;;;;;;;5037804;28;19939;-88
2022/06/24 12:03:26;;;;;;;;;;;;;;;;;;5039433;28;20431;-89
2022/06/24 12:05:52;;;;;;;;;;;;;;;;;;5038245;28;19938;-89
2022/06/24 12:08:18;;;;;;;;;;;;;;;;;;5055263;28;19940;-89
2022/06/24 12:10:51;;;;;;;;;;;;;;;;;;5055960;28;19917;-90
2022/06/24 12:13:27;;;;;;;;;;;;;;;;;;5055934;28;19974;-87
2022/06/24 12:15:53;;;;;;;;;;;;;;;;;;5055941;28;19917;-91
2022/06/24 12:18:22;;;;;;;;;;;;;;;;;;5055763;28;20364;-90
2022/06/24 12:20:58;;;;;;;;;;;;;;;;;;5054990;28;19927;-91
2022/06/24 12:23:25;;;;;;;;;;;;;;;;;;5036880;28;20368;-90
2022/06/24 12:25:51;;;;;;;;;;;;;;;;;;5055264;28;19967;-91
2022/06/24 12:28:19;;;;;;;;;;;;;;;;;;5037822;28;19967;-91
2022/06/24 12:31:05;;;;;;;;;;;;;;;;;;5037040;28;19917;-92
2022/06/24 12:33:32;;;;;;;;;;;;;;;;;;5054797;28;19923;-91
2022/06/24 12:36:04;;;;;;;;;;;;;;;;;;5054371;28;19980;-93
2022/06/24 12:38:30;;;;;;;;;;;;;;;;;;5054902;28;19962;-91
2022/06/24 12:41:09;;;;;;;;;;;;;;;;;;5054529;28;19917;-91
2022/06/24 12:43:35;;;;;;;;;;;;;;;;;;5054574;28;20422;-90
2022/06/24 12:46:02;;;;;;;;;;;;;;;;;;5054406;28;19917;-92
2022/06/24 12:51:12;;;;;;;;;;;;;;;;;;5054627;28;19923;-92
2022/06/24 12:53:37;;;;;;;;;;;;;;;;;;5054685;28;19917;-91
2022/06/24 12:56:03;;;;;;;;;;;;;;;;;;5054357;28;20360;-91
2022/06/24 12:58:29;;;;;;;;;;;;;;;;;;5036475;28;19917;-91
2022/06/24 13:00:54;;;;;;;;;;;;;;;;;;5036236;28;20327;-90
2022/06/24 13:03:20;;;;;;;;;;;;;;;;;;5036598;28;20361;-91
2022/06/24 13:05:49;;;;;;;;;;;;;;;;;;5036245;28;20365;-92
2022/06/24 13:08:14;;;;;;;;;;;;;;;;;;5054213;28;19963;-93
2022/06/24 13:10:40;;;;;;;;;;;;;;;;;;5036811;28;19948;-93
2022/06/24 13:13:06;;;;;;;;;;;;;;;;;;5036310;28;19917;-93
2022/06/24 13:15:31;;;;;;;;;;;;;;;;;;5036871;28;19917;-92
2022/06/24 13:17:57;;;;;;;;;;;;;;;;;;5036507;28;19948;-92
2022/06/24 13:20:22;;;;;;;;;;;;;;;;;;5036268;28;19917;-92
2022/06/24 13:22:48;;;;;;;;;;;;;;;;;;5054038;28;19921;-92
2022/06/24 13:25:14;;;;;;;;;;;;;;;;;;5036848;28;19917;-92
2022/06/24 13:27:40;;;;;;;;;;;;;;;;;;5053012;28;19924;-92
2022/06/24 13:30:06;;;;;;;;;;;;;;;;;;5074814;28;19928;-92
2022/06/24 13:32:31;;;;;;;;;;;;;;;;;;5069346;28;19916;-92
2022/06/24 13:34:57;;;;;;;;;;;;;;;;;;5030042;28;19921;-92
2022/06/24 13:37:22;;;;;;;;;;;;;;;;;;5033957;28;19975;-91
2022/06/24 13:39:48;;;;;;;;;;;;;;;;;;5034003;28;19917;-92
2022/06/24 13:42:13;;;;;;;;;;;;;;;;;;5033077;28;19925;-92
2022/06/24 13:44:39;;;;;;;;;;;;;;;;;;5016297;28;19917;-94
2022/06/24 13:47:04;;;;;;;;;;;;;;;;;;5032733;28;19918;-93
2022/06/24 13:49:30;;;;;;;;;;;;;;;;;;5016009;28;19924;-93
2022/06/24 13:51:56;;;;;;;;;;;;;;;;;;5033374;28;19917;-91
2022/06/24 13:54:21;;;;;;;;;;;;;;;;;;5032695;28;19970;-93
2022/06/24 13:56:47;;;;;;;;;;;;;;;;;;5034038;28;20277;-94
2022/06/24 13:59:14;;;;;;;;;;;;;;;;;;5033869;28;20003;-91
2022/06/24 14:01:40;;;;;;;;;;;;;;;;;;5034760;28;20281;-93
2022/06/24 14:04:06;;;;;;;;;;;;;;;;;;5019850;28;19918;-93
2022/06/24 14:06:31;;;;;;;;;;;;;;;;;;5037591;28;19924;-92
2022/06/24 14:08:57;;;;;;;;;;;;;;;;;;5037796;28;19971;-91
2022/06/24 14:11:22;;;;;;;;;;;;;;;;;;5037969;28;19917;-92
2022/06/24 14:13:48;;;;;;;;;;;;;;;;;;5037525;28;19921;-93
2022/06/24 14:16:13;;;;;;;;;;;;;;;;;;5019614;28;20024;-88
2022/06/24 14:18:39;;;;;;;;;;;;;;;;;;5037313;28;19960;-91
2022/06/24 14:21:05;;;;;;;;;;;;;;;;;;5037670;28;20357;-89
2022/06/24 14:26:14;;;;;;;;;;;;;;;;;;5040374;28;19928;-92
2022/06/24 14:28:39;;;;;;;;;;;;;;;;;;5038404;28;19972;-94
2022/06/24 14:31:07;;;;;;;;;;;;;;;;;;5037423;28;19917;-92
2022/06/24 14:33:32;;;;;;;;;;;;;;;;;;5036976;28;20280;-90
2022/06/24 14:35:58;;;;;;;;;;;;;;;;;;5035540;28;19918;-91
2022/06/24 14:41:07;;;;;;;;;;;;;;;;;;5037155;28;19971;-90
2022/06/24 14:43:33;;;;;;;;;;;;;;;;;;5035626;28;20357;-89
2022/06/24 14:45:58;;;;;;;;;;;;;;;;;;5035759;28;19917;-91
2022/06/24 14:48:24;;;;;;;;;;;;;;;;;;5036823;28;19917;-90
2022/06/24 14:50:50;;;;;;;;;;;;;;;;;;5019126;28;20261;-91
2022/06/24 14:53:15;;;;;;;;;;;;;;;;;;5035463;28;20468;-89
2022/06/24 14:55:41;;;;;;;;;;;;;;;;;;5035371;28;19940;-91
2022/06/24 14:58:06;;;;;;;;;;;;;;;;;;5035475;28;19967;-90
2022/06/24 15:00:33;;;;;;;;;;;;;;;;;;5019218;28;19968;-90
2022/06/24 15:02:58;;;;;;;;;;;;;;;;;;5036696;28;19964;-89
2022/06/24 15:05:24;;;;;;;;;;;;;;;;;;5037535;28;19921;-90
2022/06/24 15:07:49;;;;;;;;;;;;;;;;;;5035379;28;19917;-90
2022/06/24 15:10:15;;;;;;;;;;;;;;;;;;5036732;28;19971;-92
2022/06/24 15:12:40;;;;;;;;;;;;;;;;;;5024011;28;19917;-89
2022/06/24 15:15:06;;;;;;;;;;;;;;;;;;5038204;28;19925;-90
2022/06/24 15:17:31;;;;;;;;;;;;;;;;;;5020559;28;19963;-89
2022/06/24 15:19:57;;;;;;;;;;;;;;;;;;5037015;28;19971;-90
2022/06/24 15:22:22;;;;;;;;;;;;;;;;;;5042768;28;19960;-92
2022/06/24 15:24:50;;;;;;;;;;;;;;;;;;5055854;28;19921;-90
2022/06/24 15:27:16;;;;;;;;;;;;;;;;;;5056348;28;19917;-90
2022/06/24 15:29:41;;;;;;;;;;;;;;;;;;5056104;28;20386;-89
2022/06/24 15:32:07;;;;;;;;;;;;;;;;;;5038458;28;19917;-90
2022/06/24 15:34:33;;;;;;;;;;;;;;;;;;5056449;28;19917;-91
2022/06/24 15:36:58;;;;;;;;;;;;;;;;;;5055933;28;19952;-91
2022/06/24 15:39:24;;;;;;;;;;;;;;;;;;5055838;28;19931;-92
2022/06/24 15:41:50;;;;;;;;;;;;;;;;;;5055720;28;19916;-93
2022/06/24 15:44:16;;;;;;;;;;;;;;;;;;5038059;28;19921;-91
2022/06/24 15:46:41;;;;;;;;;;;;;;;;;;5055730;28;19970;-92
2022/06/24 15:49:07;;;;;;;;;;;;;;;;;;5041986;28;20261;-90
2022/06/24 15:51:32;;;;;;;;;;;;;;;;;;5055441;28;20426;-91
2022/06/24 15:53:58;;;;;;;;;;;;;;;;;;5055414;28;19924;-90
2022/06/24 15:56:24;;;;;;;;;;;;;;;;;;5037565;28;19917;-90
2022/06/24 15:58:50;;;;;;;;;;;;;;;;;;5055600;28;19916;-90
2022/06/24 16:01:15;;;;;;;;;;;;;;;;;;5055289;28;19924;-90
2022/06/24 16:03:40;;;;;;;;;;;;;;;;;;5055529;28;19923;-92
2022/06/24 16:06:06;;;;;;;;;;;;;;;;;;5055369;28;19921;-91
2022/06/24 16:08:31;;;;;;;;;;;;;;;;;;5055524;28;19916;-88
2022/06/24 16:10:59;;;;;;;;;;;;;;;;;;5037662;28;19967;-91
2022/06/24 16:13:25;;;;;;;;;;;;;;;;;;5055443;28;19924;-90
2022/06/24 16:15:51;;;;;;;;;;;;;;;;;;5055319;28;19917;-89
2022/06/24 16:18:16;;;;;;;;;;;;;;;;;;5037319;28;19994;-90
2022/06/24 16:20:42;;;;;;;;;;;;;;;;;;5055343;28;19917;-89
2022/06/24 16:23:07;;;;;;;;;;;;;;;;;;5035806;28;19917;-90
2022/06/24 16:31:00;;;;;;;;;;;;;;;;;;5055028;28;20438;-90
2022/06/24 16:33:26;;;;;;;;;;;;;;;;;;5054742;28;19921;-91
2022/06/24 16:35:51;;;;;;;;;;;;;;;;;;5036991;28;20387;-91
2022/06/24 16:38:17;;;;;;;;;;;;;;;;;;5036601;28;19924;-90
2022/06/24 16:40:42;;;;;;;;;;;;;;;;;;5036065;28;19956;-90
2022/06/24 16:43:17;;;;;;;;;;;;;;;;;;5036638;28;19963;-90
2022/06/24 16:45:46;;;;;;;;;;;;;;;;;;5036786;28;19913;-91
2022/06/24 16:48:12;;;;;;;;;;;;;;;;;;5054620;28;20292;-90
2022/06/24 16:50:40;;;;;;;;;;;;;;;;;;5036954;28;19912;-90
2022/06/24 16:53:07;;;;;;;;;;;;;;;;;;5037839;28;20245;-89
2022/06/24 16:55:33;;;;;;;;;;;;;;;;;;5038140;28;19913;-91
2022/06/24 16:57:59;;;;;;;;;;;;;;;;;;5038984;28;19943;-90
2022/06/24 17:00:24;;;;;;;;;;;;;;;;;;5054407;28;19917;-90
2022/06/24 17:02:50;;;;;;;;;;;;;;;;;;5037816;28;19921;-89
2022/06/24 17:05:15;;;;;;;;;;;;;;;;;;5042225;28;19974;-91
2022/06/24 17:07:41;;;;;;;;;;;;;;;;;;5034273;28;19924;-89
2022/06/24 17:10:06;;;;;;;;;;;;;;;;;;5016958;28;20014;-90
2022/06/24 17:12:32;;;;;;;;;;;;;;;;;;5034491;28;19948;-91